M I D A S
Marine Information and Data Acquisition System
Tripno 1848 of the Zeeleeuw from 2010-03-24 07:33:29 to 2010-03-24 13:09:19
Back to CruiseResearch ActivitiesStationsMapUnderway DataData graphs

EquipmentUnitsComments
TimeDGPSUTC
LatitudeDGPSDM.mWGS84
LongitudeDGPSDM.mWGS84
SpeedMeteo Stationm/sRelative wind speed
DirectionMeteo StationdegRelative wind direction
TemperatureMeteo Stationdeg CelciusAir temperature
PressureMeteo StationPaAtmospheric pressure
HumidityMeteo Station%Relative humidity
Missing or incorrect values are displayed as -999
Metereological data collected by the RV Zeeleeuw from 2010-03-24 07:34:48 to 2010-03-24 13:20:32
Time Latitude Longitude Speed Direction Temperature Pressure Humidity
2010-03-24 07:35 51°13.662 2°55.962 4.1 278 10.1 100850 39
2010-03-24 07:36 51°13.662 2°55.962 3.8 281 10.1 100850 39
2010-03-24 07:37 51°13.663 2°55.953 1.8 283 10.1 100850 37
2010-03-24 07:38 51°13.68 2°55.884 0.1 5 10.1 100850 40
2010-03-24 07:39 51°13.695 2°55.779 0.1 15 10.1 100850 39
2010-03-24 07:40 51°13.704 2°55.742 2.8 18 10.1 100850 39
2010-03-24 07:41 51°13.713 2°55.752 2.6 37 10 100840 41
2010-03-24 07:42 51°13.745 2°55.725 -999 31 10 100840 40
2010-03-24 07:43 51°13.834 2°55.638 -999 32 10.1 100840 40
2010-03-24 07:44 51°13.954 2°55.548 -999 13 10.1 100840 40
2010-03-24 07:45 51°14.089 2°55.452 -999 34 10.1 100840 39
2010-03-24 07:46 51°14.224 2°55.346 -999 40 10.1 100830 39
2010-03-24 07:47 51°14.376 2°55.192 -999 282 10.2 100840 40
2010-03-24 07:48 51°14.54 2°55.013 -999 78 10.2 100830 40
2010-03-24 07:49 51°14.661 2°54.735 4.4 305 10.3 100830 38
2010-03-24 07:50 51°14.617 2°54.416 10.1 306 10.3 100810 39
2010-03-24 07:51 51°14.494 2°54.138 8.8 308 10.3 100810 40
2010-03-24 07:52 51°14.372 2°53.859 8.2 302 10.3 100810 39
2010-03-24 07:53 51°14.243 2°53.584 8.7 309 10.2 100810 38
2010-03-24 07:54 51°14.115 2°53.306 8.6 309 10.2 100810 40
2010-03-24 07:55 51°13.997 2°53.018 8.6 308 10.2 100810 39
2010-03-24 07:56 51°13.889 2°52.72 8.3 307 10.2 100810 39
2010-03-24 07:57 51°13.781 2°52.421 8.6 303 10.2 100810 40
2010-03-24 07:58 51°13.672 2°52.121 8.2 304 10.2 100810 40
2010-03-24 07:59 51°13.563 2°51.819 7.4 301 10.2 100810 39
2010-03-24 08:00 51°13.455 2°51.515 8 305 10.2 100810 39
2010-03-24 08:01 51°13.347 2°51.21 7.7 303 10.2 100800 38
2010-03-24 08:02 51°13.239 2°50.904 7.7 308 10.1 100800 40
2010-03-24 08:03 51°13.131 2°50.597 7.2 308 10.1 100800 39
2010-03-24 08:04 51°13.025 2°50.29 7.2 306 10 100800 40
2010-03-24 08:05 51°12.92 2°49.981 7.3 309 10 100800 39
2010-03-24 08:06 51°12.816 2°49.671 7.1 308 9.9 100800 39
2010-03-24 08:07 51°12.713 2°49.359 7 308 9.9 100800 40
2010-03-24 08:08 51°12.61 2°49.047 7.5 304 9.9 100790 40
2010-03-24 08:09 51°12.509 2°48.733 7.9 309 9.8 100790 39
2010-03-24 08:10 51°12.407 2°48.417 8.3 306 9.8 100790 40
2010-03-24 08:11 51°12.307 2°48.099 8 305 9.8 100790 41
2010-03-24 08:12 51°12.207 2°47.78 7.5 302 9.8 100780 39
2010-03-24 08:13 51°12.107 2°47.459 8.1 307 9.9 100770 39
2010-03-24 08:14 51°12.009 2°47.136 7.5 308 9.9 100780 39
2010-03-24 08:15 51°11.911 2°46.815 7.7 304 9.9 100780 39
2010-03-24 08:16 51°11.813 2°46.493 7.4 304 9.9 100780 41
2010-03-24 08:17 51°11.716 2°46.169 7.1 309 9.8 100780 39
2010-03-24 08:18 51°11.62 2°45.843 7.6 308 9.8 100780 39
2010-03-24 08:19 51°11.524 2°45.517 7.3 304 9.8 100780 40
2010-03-24 08:20 51°11.431 2°45.19 7.5 304 9.7 100780 40
2010-03-24 08:21 51°11.338 2°44.861 7.6 310 9.8 100780 41
2010-03-24 08:22 51°11.245 2°44.533 7.4 302 9.8 100770 40
2010-03-24 08:23 51°11.154 2°44.204 7.4 308 9.8 100780 40
2010-03-24 08:24 51°11.063 2°43.873 7.5 307 9.9 100770 40
2010-03-24 08:25 51°10.973 2°43.543 7.2 304 9.9 100770 39
2010-03-24 08:26 51°10.9 2°43.202 7.4 310 9.9 100770 39
2010-03-24 08:27 51°10.829 2°42.86 7.7 308 9.9 100780 39
2010-03-24 08:28 51°10.758 2°42.516 7.9 302 10 100770 40
2010-03-24 08:29 51°10.687 2°42.172 7.7 306 10 100770 41
2010-03-24 08:30 51°10.617 2°41.829 7.5 310 10 100770 39
2010-03-24 08:31 51°10.547 2°41.487 8.3 303 10 100770 40
2010-03-24 08:32 51°10.478 2°41.147 7.4 309 10 100760 40
2010-03-24 08:33 51°10.409 2°40.806 6.9 307 10 100760 39
2010-03-24 08:34 51°10.34 2°40.465 6.9 303 10 100760 41
2010-03-24 08:35 51°10.272 2°40.122 8.5 310 10 100760 39
2010-03-24 08:36 51°10.203 2°39.779 7.5 308 10 100750 40
2010-03-24 08:37 51°10.12 2°39.446 7.5 303 10 100760 39
2010-03-24 08:38 51°10.034 2°39.111 7.9 307 10 100750 39
2010-03-24 08:39 51°9.948 2°38.776 7.7 302 10 100750 41
2010-03-24 08:40 51°9.863 2°38.439 8.4 306 10.1 100740 40
2010-03-24 08:41 51°9.777 2°38.101 8.5 305 10.1 100740 38
2010-03-24 08:42 51°9.691 2°37.763 8.4 302 10.2 100740 40
2010-03-24 08:43 51°9.606 2°37.422 7.8 302 10.2 100740 39
2010-03-24 08:44 51°9.519 2°37.084 8.7 309 10.2 100740 39
2010-03-24 08:45 51°9.416 2°36.757 7.9 304 10.2 100730 39
2010-03-24 08:46 51°9.311 2°36.43 7.6 305 10.2 100740 40
2010-03-24 08:47 51°9.206 2°36.103 8.2 303 10.2 100740 39
2010-03-24 08:48 51°9.101 2°35.778 8.6 307 10.2 100740 39
2010-03-24 08:49 51°8.996 2°35.45 7.4 279 10.1 100740 38
2010-03-24 08:50 51°8.887 2°35.126 8.1 306 10.2 100730 39
2010-03-24 08:51 51°8.771 2°34.808 8.3 304 10.1 100730 39
2010-03-24 08:52 51°8.654 2°34.491 7.8 284 10.2 100740 40
2010-03-24 08:53 51°8.534 2°34.179 8.3 306 10.2 100740 41
2010-03-24 08:54 51°8.407 2°33.876 9 280 10.1 100730 40
2010-03-24 08:55 51°8.261 2°33.596 9.3 304 10.1 100720 40
2010-03-24 08:56 51°8.091 2°33.356 9.8 282 10.1 100730 40
2010-03-24 08:57 51°7.927 2°33.128 8.4 285 10.2 100730 39
2010-03-24 08:58 51°7.844 2°33.048 7.2 279 10.2 100740 39
2010-03-24 08:59 51°7.84 2°33.024 6.1 59 10.3 100760 39
2010-03-24 09:00 51°7.861 2°32.994 2.7 58 10.2 100760 41
2010-03-24 09:01 51°7.922 2°33.021 5.5 14 10.3 100760 40
2010-03-24 09:02 51°7.943 2°33.142 6.1 4 10.3 100750 39
2010-03-24 09:03 51°7.95 2°33.194 5.7 359 10.2 100750 40
2010-03-24 09:04 51°7.958 2°33.186 5.6 13 10.2 100750 41
2010-03-24 09:05 51°7.967 2°33.178 5.4 20 10.2 100760 39
2010-03-24 09:06 51°7.976 2°33.17 5.3 27 10.2 100760 39
2010-03-24 09:07 51°7.986 2°33.162 5.4 27 10.2 100750 39
2010-03-24 09:08 51°7.996 2°33.152 5.7 28 10.2 100750 41
2010-03-24 09:09 51°8.005 2°33.143 5.4 28 10.3 100750 40
2010-03-24 09:10 51°8.013 2°33.132 4.8 26 10.3 100750 40
2010-03-24 09:11 51°8.021 2°33.122 4.9 28 10.2 100750 40
2010-03-24 09:12 51°8.029 2°33.11 5.4 23 10.3 100740 40
2010-03-24 09:13 51°8.038 2°33.096 5.3 24 10.3 100750 40
2010-03-24 09:14 51°8.046 2°33.082 6 23 10.3 100740 39
2010-03-24 09:15 51°8.054 2°33.068 5.3 21 10.4 100750 40
2010-03-24 09:16 51°8.061 2°33.055 4.8 22 10.3 100750 40
2010-03-24 09:18 51°8.074 2°33.032 5.3 27 10.3 100750 39
2010-03-24 09:19 51°8.082 2°33.017 5.6 24 10.2 100740 40
2010-03-24 09:20 51°8.088 2°33.002 5.4 28 10.3 100750 41
2010-03-24 09:21 51°8.096 2°32.987 5.1 27 10.3 100740 40
2010-03-24 09:22 51°8.104 2°32.972 5.2 23 10.3 100750 40
2010-03-24 09:23 51°8.115 2°32.98 5.2 4 10.2 100750 39
2010-03-24 09:24 51°8.091 2°33.039 7 332 10.3 100740 40
2010-03-24 09:25 51°8.018 2°33.081 7.4 332 10.5 100750 41
2010-03-24 09:26 51°7.938 2°33.134 7.7 335 10.6 100750 40
2010-03-24 09:27 51°7.91 2°33.159 5.8 348 10.7 100740 41
2010-03-24 09:28 51°7.913 2°33.152 5 5 10.6 100740 40
2010-03-24 09:29 51°7.918 2°33.144 5.7 16 10.5 100740 39
2010-03-24 09:30 51°7.924 2°33.136 5.6 21 10.5 100740 40
2010-03-24 09:31 51°7.931 2°33.128 6 23 10.5 100750 39
2010-03-24 09:32 51°7.939 2°33.12 5.6 25 10.6 100740 40
2010-03-24 09:33 51°7.946 2°33.113 5 24 10.6 100740 40
2010-03-24 09:34 51°7.953 2°33.108 4.7 20 10.5 100740 41
2010-03-24 09:35 51°7.961 2°33.103 5.5 15 10.5 100740 41
2010-03-24 09:36 51°7.966 2°33.097 6.4 16 10.6 100740 39
2010-03-24 09:37 51°7.973 2°33.091 6.1 16 10.6 100740 40
2010-03-24 09:38 51°7.979 2°33.085 5.2 17 10.7 100740 40
2010-03-24 09:39 51°7.985 2°33.079 5.4 16 10.8 100730 40
2010-03-24 09:40 51°7.992 2°33.073 5.4 16 10.8 100740 38
2010-03-24 09:41 51°7.998 2°33.068 5.7 17 10.8 100740 39
2010-03-24 09:42 51°8.003 2°33.061 5.9 15 10.8 100740 39
2010-03-24 09:43 51°8.011 2°33.056 5.4 17 10.7 100740 40
2010-03-24 09:44 51°8.016 2°33.049 5.1 16 10.7 100740 40
2010-03-24 09:45 51°8.022 2°33.042 5.1 14 10.7 100740 40
2010-03-24 09:46 51°8.027 2°33.035 6.4 13 10.6 100740 40
2010-03-24 09:47 51°8.032 2°33.028 5.3 15 10.7 100740 40
2010-03-24 09:48 51°8.038 2°33.02 4.9 13 10.7 100740 40
2010-03-24 09:49 51°8.043 2°33.013 5.7 12 10.7 100740 40
2010-03-24 09:50 51°8.048 2°33.005 5.2 13 10.7 100730 40
2010-03-24 09:51 51°8.052 2°32.997 5.6 11 10.7 100730 40
2010-03-24 09:52 51°8.058 2°32.99 5.8 13 10.7 100730 40
2010-03-24 09:53 51°8.064 2°32.982 5.7 11 10.8 100730 41
2010-03-24 09:54 51°8.07 2°32.973 5.9 15 11 100730 39
2010-03-24 09:55 51°8.077 2°32.963 5.9 17 11 100730 39
2010-03-24 09:56 51°8.084 2°32.952 6.2 15 11 100720 38
2010-03-24 09:57 51°8.09 2°32.955 6.2 6 11 100720 39
2010-03-24 09:58 51°8.064 2°32.995 7.1 331 11 100730 40
2010-03-24 09:59 51°7.978 2°33.029 7.2 334 11.1 100720 40
2010-03-24 10:00 51°7.896 2°33.138 7.1 359 11.2 100720 39
2010-03-24 10:01 51°7.89 2°33.182 5.6 23 11.2 100710 40
2010-03-24 10:02 51°7.895 2°33.176 5.1 32 11.1 100720 39
2010-03-24 10:03 51°7.902 2°33.168 5.2 33 11.1 100730 40
2010-03-24 10:04 51°7.908 2°33.159 5.3 28 11.1 100730 40
2010-03-24 10:05 51°7.913 2°33.15 5.3 27 11 100730 40
2010-03-24 10:06 51°7.951 2°33.174 3.7 35 11 100730 41
2010-03-24 10:07 51°8.061 2°33.194 -999 24 11.1 100740 40
2010-03-24 10:08 51°8.19 2°33.143 0.1 23 11.1 100740 41
2010-03-24 10:09 51°8.324 2°33.079 0.2 19 11.3 100740 41
2010-03-24 10:10 51°8.463 2°33.048 0.1 23 11.5 100740 40
2010-03-24 10:11 51°8.6 2°33.063 1.8 42 11.5 100740 40
2010-03-24 10:12 51°8.731 2°33.053 0.2 25 11.4 100740 39
2010-03-24 10:13 51°8.8 2°33.005 2.1 25 11.4 100740 40
2010-03-24 10:14 51°8.815 2°32.985 5.6 43 11.5 100740 41
2010-03-24 10:15 51°8.818 2°32.964 5.9 42 11.3 100740 40
2010-03-24 10:16 51°8.823 2°32.943 5.4 37 11.1 100740 40
2010-03-24 10:17 51°8.828 2°32.923 5.3 34 11 100730 40
2010-03-24 10:18 51°8.833 2°32.903 5.7 28 11 100730 41
2010-03-24 10:19 51°8.838 2°32.884 5.3 28 10.9 100730 40
2010-03-24 10:20 51°8.843 2°32.864 5.1 24 10.8 100730 40
2010-03-24 10:21 51°8.848 2°32.844 5.9 21 10.8 100730 40
2010-03-24 10:22 51°8.853 2°32.823 5.4 23 10.7 100730 41
2010-03-24 10:23 51°8.859 2°32.802 5.9 22 10.7 100730 41
2010-03-24 10:24 51°8.865 2°32.78 5.5 24 10.7 100730 41
2010-03-24 10:25 51°8.875 2°32.796 5.8 14 10.7 100730 42
2010-03-24 10:26 51°8.902 2°32.913 5.4 15 10.7 100730 40
2010-03-24 10:27 51°8.929 2°33.021 5.8 13 10.8 100700 40
2010-03-24 10:28 51°8.935 2°33.055 5.8 12 10.9 100730 40
2010-03-24 10:29 51°8.941 2°33.038 6.4 16 10.9 100720 40
2010-03-24 10:30 51°8.947 2°33.026 5.7 19 11 100720 41
2010-03-24 10:31 51°8.954 2°33.081 6.1 7 11 100720 40
2010-03-24 10:32 51°8.945 2°33.214 7.5 360 10.9 100710 41
2010-03-24 10:33 51°8.92 2°33.414 7.6 357 10.9 100710 41
2010-03-24 10:34 51°8.918 2°33.654 7.8 356 10.9 100710 41
2010-03-24 10:35 51°8.895 2°33.917 8.6 356 11 100710 40
2010-03-24 10:36 51°8.882 2°34.155 6.1 1 11.1 100710 39
2010-03-24 10:37 51°8.894 2°34.256 5.4 22 11.1 100720 40
2010-03-24 10:38 51°8.898 2°34.247 5.4 37 11.1 100720 41
2010-03-24 10:39 51°8.902 2°34.226 5.5 41 11.1 100720 40
2010-03-24 10:40 51°8.908 2°34.205 4.6 37 11.2 100720 41
2010-03-24 10:41 51°8.914 2°34.186 4.9 34 11.2 100710 40
2010-03-24 10:42 51°8.919 2°34.168 5.1 28 11.2 100710 40
2010-03-24 10:43 51°8.922 2°34.15 4.8 26 11.1 100710 40
2010-03-24 10:44 51°8.925 2°34.133 4.6 22 11 100710 39
2010-03-24 10:45 51°8.927 2°34.115 4.6 21 10.9 100710 40
2010-03-24 10:46 51°8.93 2°34.097 4.8 16 10.8 100710 40
2010-03-24 10:47 51°8.932 2°34.079 5.4 15 10.8 100700 40
2010-03-24 10:48 51°8.934 2°34.06 5.7 14 10.9 100700 40
2010-03-24 10:49 51°8.936 2°34.041 6.2 12 11 100700 41
2010-03-24 10:50 51°8.938 2°34.021 5.8 11 11.2 100700 40
2010-03-24 10:51 51°8.941 2°34.001 5.8 8 11.4 100700 41
2010-03-24 10:52 51°8.943 2°33.98 5.5 8 11.4 100690 40
2010-03-24 10:53 51°8.94 2°33.998 6.2 352 11.4 100690 40
2010-03-24 10:54 51°8.874 2°34.153 8.8 343 11.3 100690 40
2010-03-24 10:55 51°8.764 2°34.375 10.3 343 11.4 100680 41
2010-03-24 10:56 51°8.65 2°34.606 10.2 345 11.5 100680 41
2010-03-24 10:57 51°8.567 2°34.795 6.7 3 11.6 100680 41
2010-03-24 10:58 51°8.595 2°34.873 5.3 32 11.6 100690 41
2010-03-24 10:59 51°8.648 2°34.868 4.7 19 11.6 100700 41
2010-03-24 11:00 51°8.73 2°34.853 4.6 40 11.7 100700 40
2010-03-24 11:01 51°8.808 2°34.897 5.7 20 11.8 100700 40
2010-03-24 11:02 51°8.844 2°34.992 6 8 11.8 100690 41
2010-03-24 11:03 51°8.86 2°35.072 7 11 11.7 100680 41
2010-03-24 11:04 51°8.869 2°35.136 6 7 11.6 100680 41
2010-03-24 11:05 51°8.873 2°35.19 5.6 8 11.6 100670 41
2010-03-24 11:06 51°8.871 2°35.239 6.1 1 11.6 100690 41
2010-03-24 11:07 51°8.865 2°35.293 6 360 11.6 100680 40
2010-03-24 11:08 51°8.861 2°35.349 6.2 2 11.7 100680 40
2010-03-24 11:09 51°8.865 2°35.406 5.6 9 11.7 100680 40
2010-03-24 11:10 51°8.871 2°35.463 5.1 7 11.6 100680 42
2010-03-24 11:11 51°8.878 2°35.52 6.8 7 11.6 100680 40
2010-03-24 11:12 51°8.884 2°35.577 5.3 4 11.7 100680 40
2010-03-24 11:13 51°8.891 2°35.635 5 6 11.5 100680 41
2010-03-24 11:14 51°8.899 2°35.692 7.6 8 11.4 100680 41
2010-03-24 11:15 51°8.916 2°35.745 6.4 14 11.5 100680 42
2010-03-24 11:16 51°8.934 2°35.797 6.4 11 11.7 100690 41
2010-03-24 11:17 51°8.952 2°35.85 5.8 9 11.8 100680 40
2010-03-24 11:18 51°8.97 2°35.904 6.3 10 11.9 100680 41
2010-03-24 11:19 51°8.987 2°35.956 4.7 6 12 100670 40
2010-03-24 11:20 51°9.006 2°36.008 5.9 10 12 100660 40
2010-03-24 11:21 51°9.025 2°36.059 5.2 4 12 100670 40
2010-03-24 11:22 51°9.039 2°36.11 4.9 1 12.2 100670 40
2010-03-24 11:23 51°9.052 2°36.163 5.2 6 12 100670 41
2010-03-24 11:24 51°9.068 2°36.215 6.1 8 12.1 100680 40
2010-03-24 11:25 51°9.086 2°36.266 6.8 9 12 100670 41
2010-03-24 11:26 51°9.105 2°36.316 7 9 12.2 100670 40
2010-03-24 11:27 51°9.121 2°36.366 5.4 3 12.3 100670 40
2010-03-24 11:28 51°9.131 2°36.417 5.5 358 12.3 100670 40
2010-03-24 11:29 51°9.128 2°36.464 5.9 353 12.2 100650 40
2010-03-24 11:30 51°9.126 2°36.511 6 354 12.2 100650 41
2010-03-24 11:31 51°9.121 2°36.546 6.1 353 12.3 100650 40
2010-03-24 11:32 51°9.114 2°36.563 6.6 346 12.4 100650 41
2010-03-24 11:33 51°9.095 2°36.573 6.3 335 12.6 100640 40
2010-03-24 11:34 51°9.081 2°36.565 6.7 338 12.8 100640 39
2010-03-24 11:35 51°9.074 2°36.546 6.2 345 13 100640 40
2010-03-24 11:36 51°9.072 2°36.526 6.5 346 13.1 100640 41
2010-03-24 11:37 51°9.046 2°36.532 6.3 328 13.1 100640 41
2010-03-24 11:38 51°8.989 2°36.465 6.9 253 13.2 100630 41
2010-03-24 11:39 51°9.017 2°36.322 1.4 23 13.3 100650 39
2010-03-24 11:40 51°9.087 2°36.335 5.9 7 13.3 100660 40
2010-03-24 11:41 51°9.106 2°36.383 4.7 6 13 100660 41
2010-03-24 11:42 51°9.114 2°36.403 4.7 7 12.8 100660 41
2010-03-24 11:43 51°9.119 2°36.406 4.5 6 12.7 100660 41
2010-03-24 11:44 51°9.122 2°36.398 5.4 8 12.6 100660 41
2010-03-24 11:45 51°9.125 2°36.382 5.6 9 12.6 100660 41
2010-03-24 11:46 51°9.128 2°36.362 5.4 8 12.7 100660 41
2010-03-24 11:47 51°9.13 2°36.338 5.5 9 12.7 100660 42
2010-03-24 11:48 51°9.132 2°36.311 5.1 9 12.7 100660 41
2010-03-24 11:49 51°9.134 2°36.285 5.4 6 12.7 100650 40
2010-03-24 11:50 51°9.133 2°36.321 6.9 351 12.8 100650 40
2010-03-24 11:51 51°9.11 2°36.485 9.1 351 13 100630 41
2010-03-24 11:52 51°9.11 2°36.745 8.5 352 13 100620 41
2010-03-24 11:53 51°9.151 2°37.015 8.8 353 13.2 100630 41
2010-03-24 11:54 51°9.197 2°37.307 8 351 13.2 100620 40
2010-03-24 11:55 51°9.239 2°37.606 9 354 13.2 100620 40
2010-03-24 11:56 51°9.279 2°37.906 9 354 13.3 100630 40
2010-03-24 11:57 51°9.333 2°38.199 7.9 357 13.3 100630 40
2010-03-24 11:58 51°9.415 2°38.48 7.1 353 13.3 100630 40
2010-03-24 11:59 51°9.494 2°38.762 7.8 358 13.3 100630 41
2010-03-24 12:00 51°9.573 2°39.044 8.5 354 13.4 100620 40
2010-03-24 12:01 51°9.653 2°39.324 8.2 357 13.6 100620 40
2010-03-24 12:02 51°9.73 2°39.608 8 358 13.6 100620 39
2010-03-24 12:03 51°9.807 2°39.893 8.4 359 13.4 100620 40
2010-03-24 12:04 51°9.885 2°40.177 7.5 358 13.6 100620 38
2010-03-24 12:05 51°9.963 2°40.462 7.7 356 13.5 100620 41
2010-03-24 12:06 51°10.041 2°40.747 7.4 352 13.5 100630 40
2010-03-24 12:07 51°10.118 2°41.032 8.4 357 13.5 100620 40
2010-03-24 12:08 51°10.194 2°41.318 8.8 357 13.7 100620 40
2010-03-24 12:09 51°10.27 2°41.603 8.4 -999 13.6 100610 39
2010-03-24 12:10 51°10.345 2°41.889 7.4 359 13.7 100620 40
2010-03-24 12:11 51°10.421 2°42.177 7.7 2 13.7 100620 40
2010-03-24 12:12 51°10.497 2°42.465 7.9 -999 13.6 100620 40
2010-03-24 12:13 51°10.573 2°42.753 9.5 359 13.5 100620 40
2010-03-24 12:14 51°10.648 2°43.041 9 360 13.6 100610 40
2010-03-24 12:15 51°10.721 2°43.328 8 4 13.8 100600 40
2010-03-24 12:16 51°10.797 2°43.616 8.5 359 13.9 100610 40
2010-03-24 12:17 51°10.877 2°43.92 8.3 356 14 100610 39
2010-03-24 12:18 51°10.959 2°44.23 7.8 360 14.1 100600 39
2010-03-24 12:19 51°11.041 2°44.54 8.1 1 13.9 100610 40
2010-03-24 12:20 51°11.121 2°44.85 7.7 358 14.2 100620 39
2010-03-24 12:21 51°11.2 2°45.16 9.4 359 14.2 100610 40
2010-03-24 12:22 51°11.28 2°45.47 7.9 -999 14.2 100610 40
2010-03-24 12:23 51°11.36 2°45.78 7.9 358 14.3 100610 40
2010-03-24 12:24 51°11.441 2°46.089 7.4 3 14.4 100610 40
2010-03-24 12:25 51°11.523 2°46.399 7.8 356 14.4 100610 40
2010-03-24 12:26 51°11.603 2°46.707 9.8 356 14.3 100610 40
2010-03-24 12:27 51°11.695 2°47.007 8.8 359 14.4 100610 39
2010-03-24 12:28 51°11.792 2°47.303 7.2 7 14.5 100620 39
2010-03-24 12:29 51°11.916 2°47.575 6.2 3 14.5 100620 39
2010-03-24 12:30 51°12.042 2°47.846 7.2 2 14.6 100630 39
2010-03-24 12:31 51°12.166 2°48.119 6.2 7 14.6 100620 39
2010-03-24 12:32 51°12.29 2°48.391 5.6 1 14.7 100630 40
2010-03-24 12:33 51°12.412 2°48.664 6.7 7 14.6 100620 39
2010-03-24 12:34 51°12.533 2°48.935 5.7 2 14.6 100620 39
2010-03-24 12:35 51°12.654 2°49.207 6.5 7 14.5 100620 40
2010-03-24 12:36 51°12.774 2°49.479 6.7 1 14.6 100620 38
2010-03-24 12:37 51°12.896 2°49.749 7.5 6 14.5 100620 39
2010-03-24 12:38 51°13.017 2°50.02 7.3 4 14.5 100620 40
2010-03-24 12:39 51°13.14 2°50.289 7 4 14.4 100610 40
2010-03-24 12:40 51°13.262 2°50.559 6.6 1 14.5 100620 40
2010-03-24 12:41 51°13.371 2°50.803 7.4 10 14.5 100630 39
2010-03-24 12:42 51°13.433 2°50.948 5.4 24 14.5 100630 39
2010-03-24 12:43 51°13.464 2°51.032 6.2 12 14.4 100630 40
2010-03-24 12:44 51°13.468 2°51.046 6.6 11 14.4 100620 39
2010-03-24 12:45 51°13.467 2°50.989 7.4 19 14.5 100630 39
2010-03-24 12:46 51°13.46 2°50.942 6 21 14.6 100620 39
2010-03-24 12:47 51°13.457 2°50.91 5.7 25 14.7 100620 39
2010-03-24 12:48 51°13.457 2°50.889 5.7 24 14.6 100620 39
2010-03-24 12:49 51°13.458 2°50.885 5.8 7 14.6 100620 39
2010-03-24 12:50 51°13.474 2°51.011 5.6 2 14.6 100610 39
2010-03-24 12:51 51°13.536 2°51.24 6.6 6 14.6 100600 39
2010-03-24 12:52 51°13.601 2°51.483 6.3 359 14.7 100610 38
2010-03-24 12:53 51°13.673 2°51.723 6.7 357 14.6 100600 40
2010-03-24 12:54 51°13.753 2°51.956 6.2 1 14.7 100600 40
2010-03-24 12:55 51°13.845 2°52.18 7.1 358 14.9 100600 39
2010-03-24 12:56 51°13.919 2°52.42 6.9 2 15 100600 40
2010-03-24 12:57 51°13.961 2°52.679 7.3 357 15 100600 40
2010-03-24 12:58 51°14.019 2°52.928 7.1 2 15 100600 39
2010-03-24 12:59 51°14.089 2°53.169 5.9 359 15.3 100600 39
2010-03-24 13:00 51°14.175 2°53.399 6.6 15 15.3 100600 38
2010-03-24 13:01 51°14.261 2°53.631 5 6 15.4 100610 39
2010-03-24 13:02 51°14.348 2°53.866 5.4 6 15.4 100600 38
2010-03-24 13:03 51°14.435 2°54.101 6.8 4 15.5 100600 38
2010-03-24 13:04 51°14.517 2°54.332 7.6 358 15.6 100600 38
2010-03-24 13:05 51°14.579 2°54.553 5.3 8 15.7 100600 39
2010-03-24 13:06 51°14.6 2°54.783 6.1 349 15.7 100600 39
2010-03-24 13:07 51°14.527 2°54.986 10.2 334 15.7 100600 39
2010-03-24 13:08 51°14.408 2°55.122 7.7 332 15.8 100600 38
2010-03-24 13:09 51°14.313 2°55.231 7.4 338 15.9 100600 38
2010-03-24 13:10 51°14.228 2°55.327 6.9 331 16 100600 38
2010-03-24 13:11 51°14.146 2°55.403 6.9 328 16 100600 39
2010-03-24 13:12 51°14.063 2°55.462 6 333 16.2 100600 39
2010-03-24 13:13 51°13.98 2°55.525 6.4 328 16.3 100600 39
2010-03-24 13:14 51°13.895 2°55.586 5.5 324 16.4 100600 39
2010-03-24 13:15 51°13.812 2°55.647 5.9 331 16.4 100590 39
2010-03-24 13:16 51°13.755 2°55.718 5.1 344 16.4 100590 39
2010-03-24 13:17 51°13.724 2°55.785 5.1 334 16.4 100610 39
2010-03-24 13:18 51°13.692 2°55.86 8 339 16.4 100610 38
2010-03-24 13:19 51°13.665 2°55.944 6.2 342 16.4 100610 39
2010-03-24 13:20 51°13.662 2°55.958 5 343 16.4 100610 39